Bertram, Texas
Current Conditions -  °F | °C
As of 4:51 AM on Monday 20 Oct 2014 (Local Time) from KBMQ Reporting Station
Broken Clouds Broken Clouds  
Wind Chill: 63°   Ceiling: 2400
Heat Index: 63°   Visibility: 7mi
Dew Point: 59°   Wind: 5mph
Humidity: 88%   Direction: 20°NNE
Pressure: 30.07"   Gusts: NA
Location:  30.74°N, 98.06°W
Report Text: KBMQ 200951Z AUTO 02004KT 7SM FEW010 SCT015 BKN024 17/15 A3007 RMK AO2
Loading
Personal Weather Stations






























Interactive Weather Map
Tropical Storm Tracking
New forecast layout! Learn more

10-Day Weather Forecast

Advertisements
Track Severe Weather on mobile